createdAt,value
2022-08-18T00:01:16.165Z,55.60
2022-08-18T00:04:27.819Z,57.42
2022-08-18T00:07:16.735Z,56.13
2022-08-18T00:10:06.735Z,54.00
2022-08-18T00:13:05.315Z,56.90
2022-08-18T00:15:54.101Z,57.00
2022-08-18T00:18:42.495Z,56.65
2022-08-18T00:21:31.223Z,57.97
2022-08-18T00:24:19.718Z,58.17
2022-08-18T00:27:10.673Z,59.50
2022-08-18T00:30:03.893Z,60.15
2022-08-18T00:32:55.737Z,59.47
2022-08-18T00:35:44.158Z,60.25
2022-08-18T00:38:33.843Z,61.50
2022-08-18T00:41:26.813Z,61.97
2022-08-18T00:44:16.599Z,61.63
2022-08-18T00:47:06.813Z,62.35
2022-08-18T00:49:55.455Z,62.50
2022-08-18T00:52:51.545Z,64.60
2022-08-18T00:55:41.592Z,63.17
2022-08-18T00:58:47.595Z,65.88
2022-08-18T01:01:38.085Z,64.20
2022-08-18T01:04:35.008Z,65.78
2022-08-18T01:07:29.784Z,67.30
2022-08-18T01:10:20.820Z,66.32
2022-08-18T01:13:09.431Z,65.72
2022-08-18T01:15:58.391Z,64.40
2022-08-18T01:19:04.057Z,63.38
2022-08-18T01:22:03.424Z,65.82
2022-08-18T01:25:13.945Z,64.40
2022-08-18T01:28:03.418Z,66.03
2022-08-18T01:30:58.209Z,69.68
2022-08-18T01:33:46.567Z,69.00
2022-08-18T01:36:37.604Z,69.63
2022-08-18T01:41:23.419Z,71.22
2022-08-18T01:42:36.789Z,70.25
2022-08-18T01:45:26.351Z,70.93
2022-08-18T01:48:15.041Z,69.63
2022-08-18T01:51:05.746Z,70.45
2022-08-18T01:53:54.124Z,71.63
2022-08-18T01:56:43.949Z,70.63
2022-08-18T01:59:35.396Z,69.85
2022-08-18T02:02:27.679Z,68.93
2022-08-18T02:05:19.440Z,72.15
2022-08-18T02:08:08.677Z,72.05
2022-08-18T02:10:58.907Z,72.78
2022-08-18T02:13:47.370Z,78.80
2022-08-18T02:16:37.168Z,76.00
2022-08-18T02:19:25.592Z,78.18
2022-08-18T02:22:17.995Z,78.13
2022-08-18T02:25:07.363Z,77.28
2022-08-18T02:27:55.909Z,79.03
2022-08-18T02:30:44.909Z,79.68
2022-08-18T02:33:35.323Z,75.80
2022-08-18T02:36:25.230Z,75.55
2022-08-18T02:39:14.048Z,73.97
2022-08-18T02:42:02.612Z,71.72
2022-08-18T02:44:51.048Z,73.95
2022-08-18T02:47:39.865Z,71.38
2022-08-18T02:50:29.577Z,73.93
2022-08-18T02:53:22.704Z,73.25
2022-08-18T02:56:32.877Z,72.80
2022-08-18T02:59:31.967Z,72.28
2022-08-18T03:02:22.547Z,71.85
2022-08-18T03:05:14.800Z,71.53
2022-08-18T03:08:05.177Z,70.65
2022-08-18T03:10:53.931Z,70.50
2022-08-18T03:13:42.381Z,65.75
2022-08-18T03:16:32.887Z,64.57
2022-08-18T03:19:22.644Z,62.38
2022-08-18T03:22:28.701Z,60.40
2022-08-18T03:25:19.454Z,62.22
2022-08-18T03:28:08.246Z,63.33
2022-08-18T03:30:57.122Z,68.82
2022-08-18T03:33:47.427Z,67.75
2022-08-18T03:36:37.356Z,70.15
2022-08-18T03:39:27.863Z,70.60
2022-08-18T03:42:18.079Z,70.53
2022-08-18T03:45:12.518Z,71.18
2022-08-18T03:48:06.885Z,78.68
2022-08-18T03:50:55.261Z,76.85
2022-08-18T03:53:44.351Z,76.72
2022-08-18T03:56:34.915Z,79.45
2022-08-18T03:59:27.120Z,80.40
2022-08-18T04:02:15.565Z,82.75
2022-08-18T04:05:05.408Z,83.20
2022-08-18T04:07:54.675Z,80.68
2022-08-18T04:10:45.188Z,77.75
2022-08-18T04:13:36.529Z,76.97
2022-08-18T04:16:27.370Z,76.65
2022-08-18T04:19:23.126Z,76.70
2022-08-18T04:22:17.268Z,75.13
2022-08-18T04:25:09.449Z,77.43
2022-08-18T04:28:00.494Z,74.43
2022-08-18T04:30:49.030Z,74.95
2022-08-18T04:33:40.519Z,79.20
2022-08-18T04:36:34.237Z,79.03
2022-08-18T04:39:24.169Z,82.82
2022-08-18T04:42:12.599Z,85.35
2022-08-18T04:45:01.046Z,91.03
2022-08-18T04:47:49.721Z,86.75
2022-08-18T04:50:40.593Z,93.05
2022-08-18T04:53:46.586Z,92.97
2022-08-18T04:56:38.766Z,93.80
2022-08-18T04:59:28.193Z,91.47
2022-08-18T05:02:18.644Z,92.82
2022-08-18T05:05:08.136Z,89.80
2022-08-18T05:07:58.226Z,88.15
2022-08-18T05:10:47.474Z,80.75
2022-08-18T05:13:36.732Z,80.05
2022-08-18T05:16:28.849Z,76.78
2022-08-18T05:19:23.133Z,75.72
2022-08-18T05:22:14.080Z,80.28
2022-08-18T05:25:05.123Z,76.30
2022-08-18T05:27:53.707Z,76.32
2022-08-18T05:30:42.893Z,76.75
2022-08-18T05:33:31.342Z,79.65
2022-08-18T05:36:29.660Z,90.75
2022-08-18T05:39:26.316Z,98.90
2022-08-18T05:42:19.664Z,77.38
2022-08-18T05:45:12.576Z,79.88
2022-08-18T05:48:01.605Z,86.45
2022-08-18T05:50:51.299Z,80.20
2022-08-18T05:53:58.697Z,76.53
2022-08-18T05:56:50.743Z,73.30
2022-08-18T05:59:42.965Z,69.07
2022-08-18T06:02:35.848Z,68.80
2022-08-18T06:05:29.592Z,65.97
2022-08-18T06:08:22.606Z,70.15
2022-08-18T06:11:22.091Z,65.90
2022-08-18T06:14:11.474Z,60.30
2022-08-18T06:17:31.991Z,59.97
2022-08-18T06:20:28.279Z,54.78
2022-08-18T06:23:29.047Z,50.65
2022-08-18T06:26:23.156Z,49.97
2022-08-18T06:29:26.568Z,52.17
2022-08-18T06:32:28.295Z,47.80
2022-08-18T06:35:23.332Z,48.45
2022-08-18T06:38:45.395Z,46.15
2022-08-18T06:41:42.951Z,45.38
2022-08-18T06:44:37.175Z,45.72
2022-08-18T06:47:36.761Z,43.10
2022-08-18T06:50:31.260Z,41.42
2022-08-18T06:53:27.620Z,40.78
2022-08-18T06:56:26.585Z,41.35
2022-08-18T06:59:20.196Z,40.03
2022-08-18T07:02:22.908Z,39.00
2022-08-18T07:05:22.137Z,38.20
2022-08-18T07:08:15.657Z,35.80
2022-08-18T07:11:20.287Z,34.92
2022-08-18T07:14:17.208Z,34.15
2022-08-18T07:17:11.208Z,33.78
2022-08-18T07:20:03.407Z,32.97
2022-08-18T07:23:00.346Z,33.38
2022-08-18T07:25:54.248Z,30.55
2022-08-18T07:28:45.154Z,28.85
2022-08-18T07:31:42.700Z,28.20
2022-08-18T07:34:36.657Z,27.52
2022-08-18T07:37:29.285Z,26.55
2022-08-18T07:40:28.788Z,26.00
2022-08-18T07:43:22.703Z,24.13
2022-08-18T07:46:17.416Z,22.13
2022-08-18T07:49:07.230Z,20.98
2022-08-18T07:52:01.468Z,20.70
2022-08-18T07:55:00.307Z,20.27
2022-08-18T07:57:57.610Z,20.77
2022-08-18T08:00:59.668Z,19.10
2022-08-18T08:03:55.861Z,18.90
2022-08-18T08:07:12.931Z,18.55
2022-08-18T08:10:13.271Z,18.33
2022-08-18T08:13:22.334Z,18.20
2022-08-18T08:16:39.381Z,17.63
2022-08-18T08:20:02.856Z,18.40
2022-08-18T08:23:06.655Z,16.85
2022-08-18T08:26:10.568Z,17.52
2022-08-18T08:29:14.370Z,16.88
2022-08-18T08:32:07.666Z,16.95
2022-08-18T08:35:02.247Z,17.52
2022-08-18T08:37:56.769Z,16.42
2022-08-18T08:40:53.257Z,16.23
2022-08-18T08:43:46.100Z,15.70
2022-08-18T08:46:44.572Z,15.40
2022-08-18T08:49:40.817Z,15.05
2022-08-18T08:52:36.866Z,16.25
2022-08-18T08:55:31.032Z,15.18
2022-08-18T08:58:26.227Z,16.20
2022-08-18T09:01:31.703Z,15.00
2022-08-18T09:04:33.317Z,14.10
2022-08-18T09:07:38.645Z,15.50
2022-08-18T09:10:45.922Z,15.57
2022-08-18T09:14:06.991Z,14.45
2022-08-18T09:17:12.412Z,14.93
2022-08-18T09:20:29.221Z,15.57
2022-08-18T09:23:21.354Z,15.35
2022-08-18T09:26:40.700Z,15.80
2022-08-18T09:29:49.579Z,15.50
2022-08-18T09:32:57.507Z,14.48
2022-08-18T09:36:00.554Z,15.63
2022-08-18T09:39:11.480Z,14.90
2022-08-18T09:42:03.380Z,14.90
2022-08-18T09:45:06.299Z,18.52
2022-08-18T09:48:01.062Z,15.02
2022-08-18T09:50:58.170Z,14.68
2022-08-18T09:54:14.728Z,16.65
2022-08-18T09:57:27.760Z,18.85
2022-08-18T10:00:29.627Z,14.43
2022-08-18T10:03:31.076Z,13.48
2022-08-18T10:06:26.965Z,13.63
2022-08-18T10:09:37.468Z,12.98
2022-08-18T10:12:44.090Z,13.38
2022-08-18T10:15:41.084Z,13.55
2022-08-18T10:18:54.110Z,12.80
2022-08-18T10:22:09.424Z,12.77
2022-08-18T10:25:14.139Z,12.68
2022-08-18T10:28:11.924Z,12.75
2022-08-18T10:31:09.826Z,13.38
2022-08-18T10:34:24.648Z,12.20
2022-08-18T10:37:19.538Z,14.07
2022-08-18T10:43:55.157Z,12.15
2022-08-18T10:46:46.452Z,12.10
2022-08-18T10:49:36.867Z,12.05
2022-08-18T10:56:26.448Z,14.73
2022-08-18T10:59:28.517Z,11.23
2022-08-18T11:02:43.486Z,11.90
2022-08-18T11:05:32.924Z,11.23
2022-08-18T11:08:25.052Z,9.90
2022-08-18T11:11:37.574Z,10.35
2022-08-18T11:14:51.117Z,9.68
2022-08-18T11:17:52.064Z,9.60
2022-08-18T11:20:47.302Z,10.30
2022-08-18T11:23:37.421Z,10.15
2022-08-18T11:26:31.433Z,10.13
2022-08-18T11:29:32.508Z,10.70
2022-08-18T11:32:25.546Z,10.35
2022-08-18T11:35:16.423Z,10.75
2022-08-18T11:38:21.096Z,10.35
2022-08-18T11:41:18.797Z,9.75
2022-08-18T11:44:20.599Z,10.73
2022-08-18T11:47:14.784Z,9.82
2022-08-18T11:50:11.638Z,10.30
2022-08-18T11:53:18.945Z,10.10
2022-08-18T11:56:30.534Z,10.25
2022-08-18T11:59:52.226Z,12.30
2022-08-18T12:02:42.344Z,9.68
2022-08-18T12:05:53.904Z,10.23
2022-08-18T12:08:58.479Z,9.25
2022-08-18T12:11:55.211Z,9.70
2022-08-18T12:15:07.994Z,9.35
2022-08-18T12:18:03.617Z,8.43
2022-08-18T12:20:52.274Z,9.27
2022-08-18T12:23:52.248Z,9.30
2022-08-18T12:29:51.805Z,15.45
2022-08-18T12:32:50.231Z,11.23
2022-08-18T12:35:41.849Z,8.95
2022-08-18T12:38:30.933Z,9.27
2022-08-18T12:41:23.726Z,9.35
2022-08-18T12:44:13.266Z,8.88
2022-08-18T12:47:05.874Z,8.90
2022-08-18T12:49:55.288Z,9.38
2022-08-18T12:52:44.107Z,8.55
2022-08-18T12:55:43.443Z,7.78
2022-08-18T12:58:32.769Z,8.13
2022-08-18T13:01:26.581Z,9.50
2022-08-18T13:04:18.610Z,9.02
2022-08-18T13:07:08.128Z,8.10
2022-08-18T13:09:57.025Z,8.63
2022-08-18T13:12:47.078Z,8.88
2022-08-18T13:15:36.847Z,9.30
2022-08-18T13:18:28.974Z,9.07
2022-08-18T13:21:19.286Z,9.93
2022-08-18T13:24:09.557Z,8.35
2022-08-18T13:26:58.131Z,8.90
2022-08-18T13:29:46.580Z,9.85
2022-08-18T13:32:58.326Z,10.13
2022-08-18T13:35:54.057Z,11.18
2022-08-18T13:38:44.600Z,9.02
2022-08-18T13:41:33.732Z,9.57
2022-08-18T13:44:25.684Z,14.05
2022-08-18T13:47:15.260Z,10.82
2022-08-18T13:50:05.167Z,9.98
2022-08-18T13:53:01.125Z,9.02
2022-08-18T13:55:50.908Z,15.23
2022-08-18T13:58:39.402Z,9.50
2022-08-18T14:01:51.337Z,10.60
2022-08-18T14:04:41.612Z,9.80
2022-08-18T14:07:35.237Z,9.05
2022-08-18T14:10:25.196Z,11.85
2022-08-18T14:13:20.907Z,8.30
2022-08-18T14:16:19.032Z,8.80
2022-08-18T14:19:25.402Z,8.48
2022-08-18T14:22:34.955Z,8.93
2022-08-18T14:25:41.611Z,15.10
2022-08-18T14:28:32.199Z,8.48
2022-08-18T14:31:22.968Z,8.77
2022-08-18T14:34:11.932Z,8.77
2022-08-18T14:37:00.437Z,11.35
2022-08-18T14:39:53.924Z,8.57
2022-08-18T14:42:54.401Z,18.58
2022-08-18T14:45:48.945Z,9.38
2022-08-18T14:48:38.115Z,8.35
2022-08-18T14:51:31.054Z,10.18
2022-08-18T14:54:21.935Z,9.13
2022-08-18T14:57:11.547Z,9.15
2022-08-18T15:00:00.082Z,9.95
2022-08-18T15:02:50.379Z,9.40
2022-08-18T15:05:39.882Z,9.52
2022-08-18T15:08:31.057Z,13.43
2022-08-18T15:11:23.849Z,16.27
2022-08-18T15:14:12.617Z,10.07
2022-08-18T15:17:01.728Z,10.55
2022-08-18T15:20:00.675Z,11.15
2022-08-18T15:23:07.354Z,10.00
2022-08-18T15:25:56.706Z,9.73
2022-08-18T15:28:47.317Z,8.90
2022-08-18T15:31:57.948Z,10.40
2022-08-18T15:34:51.177Z,8.82
2022-08-18T15:37:43.175Z,9.73
2022-08-18T15:40:35.713Z,9.32
2022-08-18T15:43:25.337Z,9.13
2022-08-18T15:46:17.551Z,9.50
2022-08-18T15:49:11.302Z,9.30
2022-08-18T15:52:03.385Z,8.23
2022-08-18T15:54:54.762Z,8.55
2022-08-18T15:57:47.995Z,8.57
2022-08-18T16:00:49.223Z,8.43
2022-08-18T16:03:39.303Z,11.40
2022-08-18T16:06:32.212Z,8.25
2022-08-18T16:09:21.371Z,8.43
2022-08-18T16:12:11.506Z,8.38
2022-08-18T16:15:00.866Z,9.15
2022-08-18T16:17:50.690Z,10.07
2022-08-18T16:20:39.650Z,8.95
2022-08-18T16:23:28.797Z,9.73
2022-08-18T16:26:19.050Z,7.97
2022-08-18T16:29:09.156Z,9.40
2022-08-18T16:31:58.194Z,8.48
2022-08-18T16:34:46.881Z,8.73
2022-08-18T16:37:36.836Z,8.13
2022-08-18T16:40:27.977Z,7.75
2022-08-18T16:43:17.311Z,7.68
2022-08-18T16:46:11.399Z,7.72
2022-08-18T16:49:01.435Z,9.80
2022-08-18T16:51:50.096Z,8.32
2022-08-18T16:54:38.691Z,8.88
2022-08-18T16:57:55.619Z,7.88
2022-08-18T17:01:02.188Z,7.47
2022-08-18T17:04:13.397Z,7.80
2022-08-18T17:07:04.681Z,7.88
2022-08-18T17:09:53.395Z,6.95
2022-08-18T17:12:42.234Z,7.57
2022-08-18T17:15:31.371Z,7.53
2022-08-18T17:18:21.051Z,7.53
2022-08-18T17:21:13.727Z,7.05
2022-08-18T17:24:06.399Z,7.45
2022-08-18T17:27:03.908Z,10.07
2022-08-18T17:30:07.057Z,12.45
2022-08-18T17:33:00.753Z,9.05
2022-08-18T17:35:50.420Z,9.10
2022-08-18T17:38:46.145Z,8.05
2022-08-18T17:41:58.049Z,8.00
2022-08-18T17:44:52.324Z,8.18
2022-08-18T17:47:51.884Z,11.18
2022-08-18T17:51:03.693Z,7.78
2022-08-18T17:53:53.480Z,8.10
2022-08-18T17:56:47.389Z,8.35
2022-08-18T17:59:45.385Z,8.93
2022-08-18T18:02:40.937Z,9.35
2022-08-18T18:05:38.785Z,11.35
2022-08-18T18:08:48.886Z,8.30
2022-08-18T18:11:43.385Z,8.15
2022-08-18T18:14:38.387Z,8.98
2022-08-18T18:17:31.229Z,9.98
2022-08-18T18:20:38.088Z,9.35
2022-08-18T18:23:30.911Z,8.73
2022-08-18T18:26:29.588Z,8.70
2022-08-18T18:29:29.207Z,9.05
2022-08-18T18:32:27.534Z,8.82
2022-08-18T18:35:22.162Z,8.73
2022-08-18T18:38:28.168Z,8.98
2022-08-18T18:41:28.322Z,9.25
2022-08-18T18:44:17.348Z,9.32
2022-08-18T18:47:15.306Z,9.45
2022-08-18T18:50:08.141Z,9.90
2022-08-18T18:53:09.554Z,10.27
2022-08-18T18:56:08.632Z,10.10
2022-08-18T18:59:12.571Z,10.10
2022-08-18T19:02:34.872Z,10.80
2022-08-18T19:05:30.927Z,9.68
2022-08-18T19:08:33.122Z,11.00
2022-08-18T19:11:29.659Z,11.20
2022-08-18T19:14:24.524Z,11.40
2022-08-18T19:17:19.462Z,10.30
2022-08-18T19:20:13.281Z,11.10
2022-08-18T19:23:08.056Z,11.32
2022-08-18T19:28:31.345Z,13.00
2022-08-18T19:31:24.601Z,12.05
2022-08-18T19:34:16.438Z,11.25
2022-08-18T19:37:31.081Z,12.27
2022-08-18T19:40:28.407Z,13.23
2022-08-18T19:43:24.976Z,11.90
2022-08-18T19:46:24.467Z,13.05
2022-08-18T19:49:22.412Z,12.70
2022-08-18T19:52:43.004Z,13.32
2022-08-18T19:55:51.796Z,12.48
2022-08-18T19:59:15.699Z,13.13
2022-08-18T20:02:27.016Z,13.93
2022-08-18T20:05:27.545Z,12.48
2022-08-18T20:08:45.082Z,13.32
2022-08-18T20:11:48.958Z,12.00
2022-08-18T20:14:42.538Z,13.10
2022-08-18T20:17:32.371Z,13.15
2022-08-18T20:20:22.000Z,14.13
2022-08-18T20:23:33.772Z,13.43
2022-08-18T20:26:44.180Z,14.20
2022-08-18T20:29:43.460Z,14.85
2022-08-18T20:32:36.723Z,15.20
2022-08-18T20:35:27.726Z,16.27
2022-08-18T20:38:27.149Z,15.82
2022-08-18T20:41:44.093Z,16.23
2022-08-18T20:44:52.358Z,17.15
2022-08-18T20:48:12.469Z,17.65
2022-08-18T20:51:10.126Z,18.50
2022-08-18T20:54:13.595Z,17.63
2022-08-18T20:57:06.052Z,17.95
2022-08-18T21:00:02.646Z,19.13
2022-08-18T21:02:54.634Z,18.58
2022-08-18T21:05:46.541Z,19.08
2022-08-18T21:08:38.927Z,18.90
2022-08-18T21:11:32.349Z,19.63
2022-08-18T21:14:27.141Z,18.70
2022-08-18T21:17:18.615Z,20.20
2022-08-18T21:20:11.840Z,20.08
2022-08-18T21:23:07.053Z,21.25
2022-08-18T21:25:59.250Z,20.80
2022-08-18T21:28:50.801Z,21.08
2022-08-18T21:31:44.956Z,20.80
2022-08-18T21:34:43.017Z,22.67
2022-08-18T21:37:34.913Z,21.98
2022-08-18T21:40:36.333Z,23.17
2022-08-18T21:43:43.558Z,22.00
2022-08-18T21:46:37.772Z,23.55
2022-08-18T21:49:28.347Z,23.23
2022-08-18T21:52:25.059Z,23.65
2022-08-18T21:55:22.706Z,25.08
2022-08-18T21:58:19.625Z,24.50
2022-08-18T22:01:24.829Z,26.08
2022-08-18T22:04:25.192Z,25.85
2022-08-18T22:07:34.266Z,25.70
2022-08-18T22:10:46.519Z,25.92
2022-08-18T22:14:08.187Z,26.58
2022-08-18T22:17:27.897Z,25.27
2022-08-18T22:20:39.320Z,26.23
2022-08-18T22:23:54.026Z,26.38
2022-08-18T22:26:44.015Z,26.95
2022-08-18T22:29:36.701Z,27.17
2022-08-18T22:32:35.577Z,27.60
2022-08-18T22:35:24.091Z,25.85
2022-08-18T22:38:12.718Z,26.65
2022-08-18T22:41:02.245Z,27.67
2022-08-18T22:43:54.606Z,27.02
2022-08-18T22:46:43.543Z,29.00
2022-08-18T22:49:36.064Z,28.75
2022-08-18T22:52:29.716Z,28.20
2022-08-18T22:55:23.885Z,27.98
2022-08-18T22:58:13.225Z,28.45
2022-08-18T23:01:07.033Z,27.60
2022-08-18T23:03:55.448Z,27.08
2022-08-18T23:06:48.621Z,27.60
2022-08-18T23:09:37.561Z,28.88
2022-08-18T23:12:26.215Z,28.77
2022-08-18T23:15:16.844Z,28.98
2022-08-18T23:18:06.621Z,29.38
2022-08-18T23:20:58.705Z,28.58
2022-08-18T23:23:47.395Z,30.05
2022-08-18T23:26:36.343Z,29.75
2022-08-18T23:29:25.107Z,29.33
2022-08-18T23:32:13.470Z,29.70
2022-08-18T23:35:03.181Z,29.58
2022-08-18T23:37:51.629Z,29.77
2022-08-18T23:40:44.543Z,29.48
2022-08-18T23:43:35.565Z,29.90
2022-08-18T23:46:25.801Z,30.88
2022-08-18T23:49:14.986Z,30.38
2022-08-18T23:52:05.899Z,30.75
2022-08-18T23:54:54.205Z,31.17
2022-08-18T23:57:42.813Z,30.67
